createdAt,value
2022-09-12T00:01:19.776Z,15.70
2022-09-12T00:03:47.176Z,15.70
2022-09-12T00:06:22.812Z,15.70
2022-09-12T00:08:51.151Z,15.60
2022-09-12T00:11:18.036Z,15.60
2022-09-12T00:13:44.841Z,15.60
2022-09-12T00:16:20.551Z,15.50
2022-09-12T00:18:47.675Z,15.50
2022-09-12T00:21:15.818Z,15.50
2022-09-12T00:23:42.808Z,15.50
2022-09-12T00:26:10.111Z,15.50
2022-09-12T00:28:39.468Z,15.40
2022-09-12T00:31:09.187Z,15.40
2022-09-12T00:33:36.376Z,15.40
2022-09-12T00:36:12.731Z,15.40
2022-09-12T00:38:41.851Z,15.40
2022-09-12T00:41:15.832Z,15.30
2022-09-12T00:43:58.498Z,15.30
2022-09-12T00:46:46.791Z,15.30
2022-09-12T00:49:21.815Z,15.30
2022-09-12T00:52:00.392Z,15.30
2022-09-12T00:54:30.996Z,15.20
2022-09-12T00:57:01.781Z,15.20
2022-09-12T00:59:43.178Z,15.20
2022-09-12T01:02:10.197Z,15.20
2022-09-12T01:04:40.949Z,15.20
2022-09-12T01:07:08.542Z,15.10
2022-09-12T01:09:37.795Z,15.10
2022-09-12T01:12:05.231Z,15.10
2022-09-12T01:14:32.816Z,15.10
2022-09-12T01:16:59.546Z,15.10
2022-09-12T01:19:35.288Z,15.10
2022-09-12T01:22:04.665Z,15.10
2022-09-12T01:24:42.489Z,15.10
2022-09-12T01:27:41.086Z,15.00
2022-09-12T01:30:38.420Z,15.10
2022-09-12T01:33:49.514Z,15.00
2022-09-12T01:36:38.162Z,15.00
2022-09-12T01:39:13.641Z,15.00
2022-09-12T01:42:10.132Z,15.00
2022-09-12T01:45:07.621Z,15.00
2022-09-12T01:47:44.880Z,14.90
2022-09-12T01:50:20.000Z,14.90
2022-09-12T01:52:53.720Z,14.90
2022-09-12T01:55:42.025Z,14.90
2022-09-12T01:58:17.735Z,14.90
2022-09-12T02:01:02.721Z,14.90
2022-09-12T02:03:44.627Z,14.80
2022-09-12T02:06:30.970Z,14.80
2022-09-12T02:09:19.515Z,14.80
2022-09-12T02:11:47.517Z,14.80
2022-09-12T02:14:21.463Z,14.70
2022-09-12T02:16:59.743Z,14.70
2022-09-12T02:19:37.383Z,14.70
2022-09-12T02:22:06.260Z,14.70
2022-09-12T02:24:39.312Z,14.70
2022-09-12T02:27:28.379Z,14.70
2022-09-12T02:29:55.096Z,14.70
2022-09-12T02:32:30.683Z,14.60
2022-09-12T02:35:13.617Z,14.60
2022-09-12T02:37:48.138Z,14.60
2022-09-12T02:40:15.430Z,14.60
2022-09-12T02:42:42.143Z,14.60
2022-09-12T02:45:09.521Z,14.60
2022-09-12T02:47:45.215Z,14.50
2022-09-12T02:50:12.619Z,14.50
2022-09-12T02:52:40.693Z,14.50
2022-09-12T02:55:08.395Z,14.50
2022-09-12T02:57:34.975Z,14.50
2022-09-12T03:00:01.843Z,14.50
2022-09-12T03:02:32.624Z,14.50
2022-09-12T03:05:17.711Z,14.50
2022-09-12T03:08:14.996Z,14.50
2022-09-12T03:11:06.482Z,14.50
2022-09-12T03:14:01.720Z,14.50
2022-09-12T03:16:34.486Z,14.50
2022-09-12T03:19:12.015Z,14.50
2022-09-12T03:22:10.851Z,14.50
2022-09-12T03:24:48.110Z,14.50
2022-09-12T03:27:30.015Z,14.50
2022-09-12T03:29:57.527Z,14.50
2022-09-12T03:32:44.994Z,14.50
2022-09-12T03:35:12.455Z,14.50
2022-09-12T03:37:39.194Z,14.40
2022-09-12T03:40:07.951Z,14.40
2022-09-12T03:42:34.605Z,14.40
2022-09-12T03:45:01.319Z,14.40
2022-09-12T03:47:27.963Z,14.30
2022-09-12T03:49:54.561Z,14.30
2022-09-12T03:52:21.173Z,14.40
2022-09-12T03:54:47.755Z,14.30
2022-09-12T03:57:14.498Z,14.40
2022-09-12T03:59:41.161Z,14.40
2022-09-12T04:02:09.645Z,14.40
2022-09-12T04:04:36.256Z,14.30
2022-09-12T04:07:02.824Z,14.30
2022-09-12T04:09:29.419Z,14.30
2022-09-12T04:11:55.934Z,14.30
2022-09-12T04:14:22.662Z,14.30
2022-09-12T04:16:49.266Z,14.30
2022-09-12T04:19:15.845Z,14.30
2022-09-12T04:21:42.448Z,14.30
2022-09-12T04:24:09.007Z,14.30
2022-09-12T04:26:35.641Z,14.30
2022-09-12T04:29:02.260Z,14.30
2022-09-12T04:31:28.870Z,14.30
2022-09-12T04:33:56.373Z,14.40
2022-09-12T04:36:23.417Z,14.40
2022-09-12T04:38:50.346Z,14.40
2022-09-12T04:41:18.723Z,14.40
2022-09-12T04:43:46.418Z,14.40
2022-09-12T04:46:15.992Z,14.40
2022-09-12T04:48:43.726Z,14.40
2022-09-12T04:51:21.455Z,14.40
2022-09-12T04:53:50.186Z,14.50
2022-09-12T04:56:17.844Z,14.50
2022-09-12T04:58:44.672Z,14.50
2022-09-12T05:01:20.088Z,14.50
2022-09-12T05:03:48.226Z,14.60
2022-09-12T05:06:23.887Z,14.60
2022-09-12T05:08:52.682Z,14.60
2022-09-12T05:11:26.603Z,14.70
2022-09-12T05:13:57.545Z,14.70
2022-09-12T05:16:25.863Z,14.70
2022-09-12T05:18:52.971Z,14.80
2022-09-12T05:21:23.040Z,14.80
2022-09-12T05:23:53.803Z,14.80
2022-09-12T05:26:21.464Z,14.80
2022-09-12T05:28:49.483Z,14.80
2022-09-12T05:31:21.887Z,14.90
2022-09-12T05:33:49.967Z,14.80
2022-09-12T05:36:25.501Z,14.80
2022-09-12T05:38:52.516Z,14.80
2022-09-12T05:41:25.382Z,14.80
2022-09-12T05:43:52.992Z,14.90
2022-09-12T05:46:21.224Z,14.80
2022-09-12T05:48:52.491Z,14.90
2022-09-12T05:51:27.217Z,14.90
2022-09-12T05:53:56.638Z,14.90
2022-09-12T05:56:25.660Z,14.80
2022-09-12T05:58:57.624Z,14.80
2022-09-12T06:01:25.772Z,14.90
2022-09-12T06:03:54.302Z,14.90
2022-09-12T06:06:23.007Z,14.90
2022-09-12T06:08:51.802Z,14.90
2022-09-12T06:11:21.470Z,14.90
2022-09-12T06:13:48.163Z,14.90
2022-09-12T06:16:17.868Z,14.90
2022-09-12T06:18:49.628Z,14.90
2022-09-12T06:21:16.327Z,15.00
2022-09-12T06:23:43.106Z,15.00
2022-09-12T06:26:11.071Z,15.00
2022-09-12T06:28:39.835Z,15.10
2022-09-12T06:31:12.515Z,15.10
2022-09-12T06:33:42.331Z,15.00
2022-09-12T06:36:18.254Z,15.10
2022-09-12T06:38:48.717Z,15.10
2022-09-12T06:41:15.879Z,15.10
2022-09-12T06:43:43.005Z,15.10
2022-09-12T06:46:10.614Z,15.10
2022-09-12T06:48:41.619Z,15.20
2022-09-12T06:51:17.666Z,15.20
2022-09-12T06:53:45.589Z,15.30
2022-09-12T06:56:14.560Z,15.30
2022-09-12T06:58:42.504Z,15.30
2022-09-12T07:01:11.812Z,15.40
2022-09-12T07:03:39.125Z,15.40
2022-09-12T07:06:11.131Z,15.40
2022-09-12T07:08:38.820Z,15.50
2022-09-12T07:11:09.378Z,15.50
2022-09-12T07:13:36.049Z,15.60
2022-09-12T07:16:04.181Z,15.60
2022-09-12T07:18:31.407Z,15.70
2022-09-12T07:21:01.855Z,15.80
2022-09-12T07:23:29.917Z,15.80
2022-09-12T07:25:58.181Z,15.80
2022-09-12T07:28:26.080Z,15.90
2022-09-12T07:30:53.943Z,16.00
2022-09-12T07:33:22.155Z,16.00
2022-09-12T07:35:49.582Z,16.10
2022-09-12T07:38:16.955Z,16.10
2022-09-12T07:40:43.901Z,16.20
2022-09-12T07:43:10.583Z,16.30
2022-09-12T07:45:37.418Z,16.30
2022-09-12T07:48:04.418Z,16.40
2022-09-12T07:50:31.088Z,16.40
2022-09-12T07:52:57.708Z,16.50
2022-09-12T07:55:24.459Z,16.60
2022-09-12T07:57:52.032Z,16.60
2022-09-12T08:00:19.342Z,16.70
2022-09-12T08:02:50.400Z,16.80
2022-09-12T08:05:17.067Z,16.80
2022-09-12T08:07:43.695Z,17.00
2022-09-12T08:10:10.337Z,17.00
2022-09-12T08:12:36.976Z,17.10
2022-09-12T08:15:03.794Z,17.20
2022-09-12T08:17:30.472Z,17.30
2022-09-12T08:19:57.062Z,17.40
2022-09-12T08:22:24.039Z,17.50
2022-09-12T08:24:50.944Z,17.70
2022-09-12T08:27:17.533Z,17.80
2022-09-12T08:29:44.199Z,17.90
2022-09-12T08:32:11.257Z,18.00
2022-09-12T08:34:37.855Z,18.10
2022-09-12T08:37:04.583Z,18.30
2022-09-12T08:39:32.586Z,18.40
2022-09-12T08:42:06.576Z,18.50
2022-09-12T08:44:54.234Z,18.70
2022-09-12T08:47:25.332Z,18.90
2022-09-12T08:49:58.114Z,19.00
2022-09-12T08:52:43.502Z,19.20
2022-09-12T08:55:27.561Z,19.40
2022-09-12T08:57:54.689Z,19.60
2022-09-12T09:00:21.667Z,19.90
2022-09-12T09:03:10.021Z,20.10
2022-09-12T09:05:48.914Z,20.30
2022-09-12T09:08:31.142Z,20.60
2022-09-12T09:11:25.832Z,20.70
2022-09-12T09:14:16.968Z,21.00
2022-09-12T09:16:46.421Z,21.10
2022-09-12T09:19:23.283Z,21.20
2022-09-12T09:22:03.149Z,21.30
2022-09-12T09:24:47.714Z,21.50
2022-09-12T09:27:40.805Z,21.60
2022-09-12T09:30:19.794Z,21.70
2022-09-12T09:32:51.454Z,21.80
2022-09-12T09:35:32.155Z,21.90
2022-09-12T09:38:12.424Z,22.00
2022-09-12T09:40:46.210Z,22.00
2022-09-12T09:43:24.501Z,22.10
2022-09-12T09:45:53.176Z,22.20
2022-09-12T09:48:25.750Z,22.20
2022-09-12T09:50:52.828Z,22.30
2022-09-12T09:53:34.047Z,22.40
2022-09-12T09:56:07.227Z,22.50
2022-09-12T09:58:35.553Z,22.60
2022-09-12T10:01:05.742Z,22.60
2022-09-12T10:03:40.469Z,22.70
2022-09-12T10:06:22.168Z,22.80
2022-09-12T10:08:50.417Z,22.80
2022-09-12T10:11:22.721Z,22.90
2022-09-12T10:13:57.754Z,23.00
2022-09-12T10:16:28.071Z,23.00
2022-09-12T10:19:00.235Z,23.20
2022-09-12T10:21:33.553Z,23.20
2022-09-12T10:24:16.219Z,23.30
2022-09-12T10:26:46.797Z,23.30
2022-09-12T10:29:22.823Z,23.30
2022-09-12T10:31:54.158Z,23.30
2022-09-12T10:34:35.849Z,23.40
2022-09-12T10:37:07.234Z,23.40
2022-09-12T10:39:37.650Z,23.50
2022-09-12T10:42:08.055Z,23.60
2022-09-12T10:44:35.368Z,23.60
2022-09-12T10:47:21.590Z,23.70
2022-09-12T10:49:50.450Z,23.80
2022-09-12T10:52:27.269Z,23.90
2022-09-12T10:54:54.258Z,24.00
2022-09-12T10:57:59.983Z,24.20
2022-09-12T11:00:28.036Z,24.20
2022-09-12T11:03:16.396Z,24.40
2022-09-12T11:05:42.947Z,24.50
2022-09-12T11:08:15.687Z,24.60
2022-09-12T11:10:54.650Z,24.70
2022-09-12T11:13:40.584Z,24.80
2022-09-12T11:16:17.101Z,24.80
2022-09-12T11:19:04.736Z,24.70
2022-09-12T11:21:46.499Z,24.80
2022-09-12T11:24:24.542Z,25.00
2022-09-12T11:27:10.560Z,25.20
2022-09-12T11:30:02.898Z,25.30
2022-09-12T11:32:48.072Z,25.30
2022-09-12T11:35:19.584Z,25.30
2022-09-12T11:38:00.423Z,25.20
2022-09-12T11:40:40.575Z,25.20
2022-09-12T11:43:25.060Z,25.20
2022-09-12T11:45:52.410Z,25.20
2022-09-12T11:48:37.240Z,25.10
2022-09-12T11:51:15.432Z,25.10
2022-09-12T11:53:43.854Z,25.10
2022-09-12T11:56:17.081Z,25.10
2022-09-12T11:58:51.568Z,25.20
2022-09-12T12:01:45.077Z,25.20
2022-09-12T12:04:19.302Z,25.10
2022-09-12T12:06:56.359Z,25.20
2022-09-12T12:09:23.480Z,25.20
2022-09-12T12:11:56.921Z,25.30
2022-09-12T12:14:44.537Z,25.30
2022-09-12T12:17:30.291Z,25.20
2022-09-12T12:20:08.213Z,25.30
2022-09-12T12:22:35.962Z,25.30
2022-09-12T12:25:29.029Z,25.30
2022-09-12T12:27:59.219Z,25.30
2022-09-12T12:30:33.335Z,25.30
2022-09-12T12:33:26.872Z,25.30
2022-09-12T12:35:59.707Z,25.30
2022-09-12T12:38:37.161Z,25.30
2022-09-12T12:41:19.037Z,25.30
2022-09-12T12:43:48.206Z,25.40
2022-09-12T12:46:16.836Z,25.40
2022-09-12T12:49:20.042Z,25.40
2022-09-12T12:52:01.935Z,25.40
2022-09-12T12:54:34.172Z,25.40
2022-09-12T12:57:12.950Z,25.40
2022-09-12T12:59:46.512Z,25.30
2022-09-12T13:02:37.066Z,25.30
2022-09-12T13:05:15.883Z,25.30
2022-09-12T13:07:43.911Z,25.30
2022-09-12T13:10:23.395Z,25.40
2022-09-12T13:12:51.431Z,25.40
2022-09-12T13:15:36.189Z,25.50
2022-09-12T13:18:11.162Z,25.40
2022-09-12T13:20:49.702Z,25.40
2022-09-12T13:23:27.820Z,25.50
2022-09-12T13:26:00.528Z,25.50
2022-09-12T13:28:29.260Z,25.50
2022-09-12T13:31:01.093Z,25.50
2022-09-12T13:33:34.160Z,25.50
2022-09-12T13:36:09.714Z,25.40
2022-09-12T13:39:02.111Z,25.50
2022-09-12T13:41:50.980Z,25.50
2022-09-12T13:44:21.537Z,25.40
2022-09-12T13:46:48.838Z,25.30
2022-09-12T13:49:32.808Z,25.30
2022-09-12T13:52:03.747Z,25.20
2022-09-12T13:54:31.595Z,25.20
2022-09-12T13:56:59.698Z,25.20
2022-09-12T13:59:26.355Z,25.20
2022-09-12T14:01:53.054Z,25.30
2022-09-12T14:04:44.211Z,25.30
2022-09-12T14:07:15.169Z,25.40
2022-09-12T14:09:44.895Z,25.50
2022-09-12T14:12:32.307Z,25.60
2022-09-12T14:14:59.003Z,25.60
2022-09-12T14:17:32.712Z,25.60
2022-09-12T14:20:03.693Z,25.60
2022-09-12T14:22:30.990Z,25.50
2022-09-12T14:24:59.499Z,25.60
2022-09-12T14:27:30.100Z,25.50
2022-09-12T14:30:09.045Z,25.50
2022-09-12T14:32:36.023Z,25.50
2022-09-12T14:35:11.706Z,25.40
2022-09-12T14:37:50.144Z,25.30
2022-09-12T14:40:20.220Z,25.30
2022-09-12T14:42:51.504Z,25.30
2022-09-12T14:45:28.998Z,25.30
2022-09-12T14:47:56.666Z,25.50
2022-09-12T14:50:26.385Z,25.50
2022-09-12T14:53:24.301Z,25.50
2022-09-12T14:56:05.503Z,25.60
2022-09-12T14:58:32.217Z,25.50
2022-09-12T15:01:22.801Z,25.50
2022-09-12T15:03:56.552Z,25.40
2022-09-12T15:06:32.148Z,25.20
2022-09-12T15:09:02.948Z,25.10
2022-09-12T15:11:29.553Z,25.00
2022-09-12T15:13:56.184Z,24.90
2022-09-12T15:16:22.961Z,24.90
2022-09-12T15:18:49.868Z,24.90
2022-09-12T15:21:19.106Z,25.00
2022-09-12T15:23:50.315Z,24.90
2022-09-12T15:26:22.429Z,24.80
2022-09-12T15:28:49.925Z,24.70
2022-09-12T15:31:27.772Z,24.60
2022-09-12T15:33:55.822Z,24.60
2022-09-12T15:36:24.075Z,24.60
2022-09-12T15:38:52.240Z,24.60
2022-09-12T15:41:38.043Z,24.60
2022-09-12T15:44:06.684Z,24.50
2022-09-12T15:46:33.778Z,24.50
2022-09-12T15:49:00.448Z,24.40
2022-09-12T15:51:27.633Z,24.40
2022-09-12T15:53:54.318Z,24.40
2022-09-12T15:56:22.045Z,24.50
2022-09-12T15:58:58.837Z,24.60
2022-09-12T16:01:27.923Z,24.70
2022-09-12T16:03:54.711Z,24.70
2022-09-12T16:06:22.225Z,24.80
2022-09-12T16:08:49.295Z,24.80
2022-09-12T16:11:26.520Z,24.70
2022-09-12T16:13:54.020Z,24.70
2022-09-12T16:16:20.941Z,24.70
2022-09-12T16:18:47.867Z,24.70
2022-09-12T16:21:15.727Z,24.70
2022-09-12T16:23:47.029Z,24.70
2022-09-12T16:26:13.963Z,24.60
2022-09-12T16:28:41.067Z,24.50
2022-09-12T16:31:10.677Z,24.40
2022-09-12T16:33:38.363Z,24.40
2022-09-12T16:36:13.714Z,24.40
2022-09-12T16:38:41.894Z,24.30
2022-09-12T16:41:08.573Z,24.20
2022-09-12T16:43:36.847Z,24.10
2022-09-12T16:46:05.245Z,24.00
2022-09-12T16:48:32.491Z,23.90
2022-09-12T16:51:01.397Z,23.90
2022-09-12T16:53:33.996Z,23.80
2022-09-12T16:56:01.156Z,23.80
2022-09-12T16:58:28.073Z,23.70
2022-09-12T17:01:03.399Z,23.70
2022-09-12T17:03:30.569Z,23.70
2022-09-12T17:05:59.524Z,23.60
2022-09-12T17:08:26.317Z,23.60
2022-09-12T17:10:53.019Z,23.50
2022-09-12T17:13:19.603Z,23.50
2022-09-12T17:15:46.259Z,23.40
2022-09-12T17:18:12.907Z,23.30
2022-09-12T17:20:39.525Z,23.20
2022-09-12T17:23:09.647Z,23.20
2022-09-12T17:25:36.630Z,23.10
2022-09-12T17:28:05.527Z,23.10
2022-09-12T17:30:36.359Z,23.00
2022-09-12T17:33:03.184Z,22.90
2022-09-12T17:35:29.793Z,22.80
2022-09-12T17:37:56.384Z,22.80
2022-09-12T17:40:37.077Z,22.70
2022-09-12T17:43:11.525Z,22.60
2022-09-12T17:45:38.507Z,22.60
2022-09-12T17:48:06.652Z,22.50
2022-09-12T17:50:39.535Z,22.50
2022-09-12T17:53:07.155Z,22.30
2022-09-12T17:55:37.434Z,22.30
2022-09-12T17:58:04.217Z,22.20
2022-09-12T18:00:57.630Z,22.10
2022-09-12T18:03:24.788Z,22.00
2022-09-12T18:05:56.216Z,21.90
2022-09-12T18:08:24.153Z,21.80
2022-09-12T18:10:51.927Z,21.80
2022-09-12T18:13:18.587Z,21.70
2022-09-12T18:15:45.265Z,21.60
2022-09-12T18:18:11.996Z,21.60
2022-09-12T18:20:38.635Z,21.50
2022-09-12T18:23:05.247Z,21.50
2022-09-12T18:25:31.857Z,21.50
2022-09-12T18:27:58.551Z,21.40
2022-09-12T18:30:25.319Z,21.30
2022-09-12T18:32:51.985Z,21.30
2022-09-12T18:35:18.613Z,21.20
2022-09-12T18:37:45.270Z,21.20
2022-09-12T18:40:12.060Z,21.10
2022-09-12T18:42:38.799Z,21.10
2022-09-12T18:45:05.949Z,21.00
2022-09-12T18:47:32.633Z,20.90
2022-09-12T18:49:59.359Z,20.90
2022-09-12T18:52:25.981Z,20.90
2022-09-12T18:54:52.590Z,20.80
2022-09-12T18:57:19.207Z,20.80
2022-09-12T18:59:45.845Z,20.70
2022-09-12T19:02:16.122Z,20.70
2022-09-12T19:04:43.663Z,20.60
2022-09-12T19:07:10.633Z,20.60
2022-09-12T19:09:37.320Z,20.60
2022-09-12T19:12:04.138Z,20.60
2022-09-12T19:14:30.808Z,20.50
2022-09-12T19:16:57.482Z,20.50
2022-09-12T19:19:24.141Z,20.40
2022-09-12T19:21:50.836Z,20.40
2022-09-12T19:24:17.485Z,20.40
2022-09-12T19:26:44.985Z,20.30
2022-09-12T19:29:13.742Z,20.30
2022-09-12T19:31:40.512Z,20.30
2022-09-12T19:34:07.736Z,20.20
2022-09-12T19:36:50.141Z,20.20
2022-09-12T19:39:19.368Z,20.30
2022-09-12T19:41:46.528Z,20.20
2022-09-12T19:44:13.818Z,20.30
2022-09-12T19:46:40.652Z,20.30
2022-09-12T19:49:07.345Z,20.30
2022-09-12T19:51:33.991Z,20.30
2022-09-12T19:54:00.801Z,20.30
2022-09-12T19:56:27.432Z,20.30
2022-09-12T19:58:56.561Z,20.30
2022-09-12T20:01:27.914Z,20.20
2022-09-12T20:03:55.724Z,20.30
2022-09-12T20:06:22.522Z,20.30
2022-09-12T20:08:49.791Z,20.30
2022-09-12T20:11:18.964Z,20.30
2022-09-12T20:13:46.305Z,20.20
2022-09-12T20:16:22.101Z,20.30
2022-09-12T20:19:13.208Z,20.20
2022-09-12T20:21:42.005Z,20.20
2022-09-12T20:24:15.683Z,20.20
2022-09-12T20:26:42.668Z,20.10
2022-09-12T20:29:11.037Z,20.10
2022-09-12T20:31:39.298Z,20.10
2022-09-12T20:34:07.182Z,20.10
2022-09-12T20:36:34.303Z,20.00
2022-09-12T20:39:02.417Z,19.90
2022-09-12T20:41:31.779Z,19.90
2022-09-12T20:43:58.909Z,19.90
2022-09-12T20:46:27.656Z,19.90
2022-09-12T20:48:55.101Z,19.90
2022-09-12T20:51:22.536Z,19.80
2022-09-12T20:53:53.973Z,19.80
2022-09-12T20:56:21.394Z,19.80
2022-09-12T20:58:48.027Z,19.80
2022-09-12T21:01:16.535Z,19.80
2022-09-12T21:03:44.137Z,19.80
2022-09-12T21:06:16.822Z,19.80
2022-09-12T21:08:44.187Z,19.90
2022-09-12T21:11:10.903Z,19.80
2022-09-12T21:13:38.177Z,19.90
2022-09-12T21:16:17.737Z,19.90
2022-09-12T21:18:46.018Z,19.90
2022-09-12T21:21:14.282Z,19.90
2022-09-12T21:23:41.409Z,19.90
2022-09-12T21:26:08.518Z,19.90
2022-09-12T21:28:35.187Z,19.90
2022-09-12T21:31:01.901Z,19.90
2022-09-12T21:33:28.552Z,19.90
2022-09-12T21:35:55.209Z,19.90
2022-09-12T21:38:21.896Z,19.90
2022-09-12T21:40:48.523Z,19.90
2022-09-12T21:43:15.626Z,19.90
2022-09-12T21:45:42.260Z,20.00
2022-09-12T21:48:11.771Z,20.00
2022-09-12T21:50:42.369Z,20.00
2022-09-12T21:53:16.332Z,20.00
2022-09-12T21:55:46.763Z,20.00
2022-09-12T21:58:13.471Z,20.10
2022-09-12T22:00:43.823Z,20.10
2022-09-12T22:03:11.661Z,20.10
2022-09-12T22:05:40.170Z,20.10
2022-09-12T22:08:07.964Z,20.10
2022-09-12T22:10:35.276Z,20.20
2022-09-12T22:13:02.846Z,20.20
2022-09-12T22:15:40.582Z,20.10
2022-09-12T22:18:08.989Z,20.10
2022-09-12T22:20:37.535Z,20.10
2022-09-12T22:23:24.963Z,20.20
2022-09-12T22:25:55.528Z,20.10
2022-09-12T22:28:22.557Z,20.10
2022-09-12T22:30:49.173Z,20.10
2022-09-12T22:33:15.840Z,20.10
2022-09-12T22:35:42.522Z,20.10
2022-09-12T22:38:09.182Z,20.10
2022-09-12T22:40:35.867Z,20.10
2022-09-12T22:43:02.484Z,20.10
2022-09-12T22:45:29.148Z,20.10
2022-09-12T22:48:00.427Z,20.10
2022-09-12T22:50:39.703Z,20.10
2022-09-12T22:53:06.458Z,20.10
2022-09-12T22:55:33.117Z,20.10
2022-09-12T22:57:59.810Z,20.10
2022-09-12T23:00:27.922Z,20.10
2022-09-12T23:02:54.682Z,20.10
2022-09-12T23:05:21.435Z,20.20
2022-09-12T23:07:48.579Z,20.10
2022-09-12T23:10:16.148Z,20.10
2022-09-12T23:12:42.762Z,20.10
2022-09-12T23:15:10.115Z,20.10
2022-09-12T23:17:37.056Z,20.10
2022-09-12T23:20:06.837Z,20.10
2022-09-12T23:22:36.833Z,20.00
2022-09-12T23:25:04.023Z,20.00
2022-09-12T23:27:30.625Z,20.00
2022-09-12T23:29:57.241Z,20.00
2022-09-12T23:32:24.911Z,20.00
2022-09-12T23:34:51.928Z,19.90
2022-09-12T23:37:18.551Z,20.00
2022-09-12T23:39:45.313Z,19.90
2022-09-12T23:42:12.078Z,20.00
2022-09-12T23:44:38.661Z,20.00
2022-09-12T23:47:05.294Z,20.00
2022-09-12T23:49:31.935Z,20.00
2022-09-12T23:51:58.553Z,19.90
2022-09-12T23:54:25.354Z,19.90
2022-09-12T23:56:52.282Z,19.80
2022-09-12T23:59:18.961Z,19.80
